PAEI METAR and TAF weather

Enter ICAO airport designator
Station Type Date Time Source
PAEI METAR 2019/08/25 19:56 UTC NOAA

PAEI 251956Z AUTO 00000KT 10SM BKN080 13/07 A2989 RMK AO2 SLP127 T01310073 $


Station Type Date Time Source
PAEI Decoded METAR 2019/08/25 19:56 UTC NOAA

Station name not available
Aug 25, 2019 - 03:56 PM EDT / 2019.08.25 1956 UTC
Wind: Calm:0
Visibility: 10 mile(s):0
Sky conditions: mostly cloudy
Temperature: 55.6 F (13.1 C)
Dew Point: 45.1 F (7.3 C)
Relative Humidity: 67%
Pressure (altimeter): 29.89 in. Hg (1012 hPa)
ob: PAEI 251956Z AUTO 00000KT 10SM BKN080 13/07 A2989 RMK AO2 SLP127 T01310073
cycle: 20

Station Type Date Time Source
PAEI TAF 2019/08/25 20:10 UTC NOAA

TAF PAEI 252000Z 2520/2702 20009KT 9999 BKN080 600802 QNH2988INS
TEMPO 2600/2603 25010G15KT
BECMG 2613/2614 VRB06KT 9999 BKN050 600602 QNH2996INS
BECMG 2620/2621 25012KT 9999 SCT040 BKN130 QNH2998INS TX17/2601Z TN03/2614Z

Example: see airport list